createdAt,value
2023-04-21T00:02:15.887Z,12.90
2023-04-21T00:04:45.812Z,12.80
2023-04-21T00:07:14.608Z,12.80
2023-04-21T00:09:41.498Z,12.80
2023-04-21T00:12:08.137Z,12.70
2023-04-21T00:14:34.789Z,12.70
2023-04-21T00:17:01.346Z,12.70
2023-04-21T00:19:29.588Z,12.60
2023-04-21T00:21:58.808Z,12.60
2023-04-21T00:24:25.977Z,12.60
2023-04-21T00:26:52.572Z,12.60
2023-04-21T00:29:19.372Z,12.60
2023-04-21T00:31:46.338Z,12.60
2023-04-21T00:34:13.009Z,12.60
2023-04-21T00:36:39.620Z,12.50
2023-04-21T00:39:06.186Z,12.50
2023-04-21T00:41:34.151Z,12.50
2023-04-21T00:44:05.284Z,12.50
2023-04-21T00:46:32.468Z,12.40
2023-04-21T00:48:59.449Z,12.40
2023-04-21T00:51:29.652Z,12.40
2023-04-21T00:53:56.849Z,12.40
2023-04-21T00:56:23.468Z,12.40
2023-04-21T00:58:50.581Z,12.30
2023-04-21T01:01:17.472Z,12.30
2023-04-21T01:03:44.563Z,12.20
2023-04-21T01:06:11.412Z,12.20
2023-04-21T01:08:38.360Z,12.20
2023-04-21T01:11:14.437Z,12.20
2023-04-21T01:13:41.265Z,12.20
2023-04-21T01:16:08.228Z,12.20
2023-04-21T01:18:36.385Z,12.20
2023-04-21T01:21:04.266Z,12.20
2023-04-21T01:23:30.908Z,12.20
2023-04-21T01:25:59.956Z,12.20
2023-04-21T01:28:29.214Z,12.20
2023-04-21T01:30:56.078Z,12.20
2023-04-21T01:33:22.730Z,12.20
2023-04-21T01:35:49.394Z,12.20
2023-04-21T01:38:19.702Z,12.10
2023-04-21T01:40:48.148Z,12.10
2023-04-21T01:43:16.497Z,12.10
2023-04-21T01:45:43.241Z,12.00
2023-04-21T01:48:09.965Z,12.00
2023-04-21T01:50:36.552Z,12.00
2023-04-21T01:53:03.164Z,12.00
2023-04-21T01:55:29.855Z,11.90
2023-04-21T01:57:59.131Z,11.80
2023-04-21T02:00:26.553Z,11.90
2023-04-21T02:02:53.335Z,11.90
2023-04-21T02:05:20.110Z,11.80
2023-04-21T02:07:46.681Z,11.80
2023-04-21T02:10:13.266Z,11.80
2023-04-21T02:12:39.875Z,11.80
2023-04-21T02:15:06.925Z,11.80
2023-04-21T02:17:33.512Z,11.80
2023-04-21T02:20:01.425Z,11.80
2023-04-21T02:22:29.194Z,11.80
2023-04-21T02:24:55.828Z,11.80
2023-04-21T02:27:22.434Z,11.70
2023-04-21T02:29:49.012Z,11.60
2023-04-21T02:32:25.575Z,11.70
2023-04-21T02:34:52.825Z,11.70
2023-04-21T02:37:19.724Z,11.60
2023-04-21T02:39:46.350Z,11.50
2023-04-21T02:42:12.920Z,11.50
2023-04-21T02:44:39.544Z,11.50
2023-04-21T02:47:06.138Z,11.60
2023-04-21T02:49:32.706Z,11.60
2023-04-21T02:51:59.321Z,11.50
2023-04-21T02:54:25.949Z,11.50
2023-04-21T02:56:52.506Z,11.50
2023-04-21T02:59:19.210Z,11.50
2023-04-21T03:01:47.898Z,11.50
2023-04-21T03:04:14.706Z,11.50
2023-04-21T03:06:41.373Z,11.40
2023-04-21T03:09:07.996Z,11.50
2023-04-21T03:11:34.600Z,11.40
2023-04-21T03:14:01.274Z,11.40
2023-04-21T03:16:28.029Z,11.40
2023-04-21T03:18:54.772Z,11.40
2023-04-21T03:21:21.489Z,11.40
2023-04-21T03:23:48.081Z,11.30
2023-04-21T03:26:15.000Z,11.30
2023-04-21T03:28:41.651Z,11.30
2023-04-21T03:31:08.293Z,11.30
2023-04-21T03:33:34.918Z,11.30
2023-04-21T03:36:01.613Z,11.30
2023-04-21T03:38:31.079Z,11.30
2023-04-21T03:40:57.663Z,11.30
2023-04-21T03:43:24.294Z,11.30
2023-04-21T03:45:50.905Z,11.20
2023-04-21T03:48:17.480Z,11.20
2023-04-21T03:50:44.043Z,11.20
2023-04-21T03:53:10.773Z,11.10
2023-04-21T03:55:37.378Z,11.10
2023-04-21T03:58:03.976Z,11.10
2023-04-21T04:00:30.551Z,11.10
2023-04-21T04:02:57.268Z,11.10
2023-04-21T04:05:24.131Z,11.10
2023-04-21T04:07:50.786Z,11.10
2023-04-21T04:10:17.382Z,11.10
2023-04-21T04:12:44.033Z,11.10
2023-04-21T04:15:10.784Z,11.10
2023-04-21T04:17:37.422Z,11.10
2023-04-21T04:20:04.565Z,11.10
2023-04-21T04:22:31.295Z,11.00
2023-04-21T04:24:59.729Z,11.00
2023-04-21T04:27:27.506Z,11.00
2023-04-21T04:29:54.208Z,11.10
2023-04-21T04:32:20.811Z,11.10
2023-04-21T04:34:47.516Z,11.10
2023-04-21T04:37:14.089Z,11.10
2023-04-21T04:39:40.747Z,11.00
2023-04-21T04:42:09.454Z,11.10
2023-04-21T04:44:36.336Z,11.10
2023-04-21T04:47:03.407Z,11.20
2023-04-21T04:49:30.043Z,11.10
2023-04-21T04:51:56.734Z,11.10
2023-04-21T04:54:24.702Z,11.20
2023-04-21T04:56:51.330Z,11.20
2023-04-21T04:59:17.951Z,11.10
2023-04-21T05:01:44.731Z,11.30
2023-04-21T05:04:11.589Z,11.30
2023-04-21T05:06:38.260Z,11.40
2023-04-21T05:09:04.942Z,11.40
2023-04-21T05:11:31.762Z,11.30
2023-04-21T05:13:58.492Z,11.50
2023-04-21T05:16:25.354Z,11.50
2023-04-21T05:18:53.958Z,11.50
2023-04-21T05:21:29.478Z,11.40
2023-04-21T05:23:56.665Z,11.50
2023-04-21T05:26:23.815Z,11.50
2023-04-21T05:28:50.990Z,11.40
2023-04-21T05:31:17.653Z,11.40
2023-04-21T05:33:44.312Z,11.50
2023-04-21T05:36:11.206Z,11.50
2023-04-21T05:38:38.218Z,11.60
2023-04-21T05:41:05.328Z,11.50
2023-04-21T05:43:34.675Z,11.60
2023-04-21T05:46:01.709Z,11.60
2023-04-21T05:48:31.348Z,11.70
2023-04-21T05:50:58.074Z,11.70
2023-04-21T05:53:24.799Z,11.80
2023-04-21T05:55:51.429Z,11.80
2023-04-21T05:58:17.970Z,12.00
2023-04-21T06:00:47.952Z,12.10
2023-04-21T06:03:15.868Z,12.20
2023-04-21T06:05:42.698Z,12.30
2023-04-21T06:08:09.268Z,12.30
2023-04-21T06:10:36.083Z,12.40
2023-04-21T06:13:02.706Z,12.60
2023-04-21T06:15:29.308Z,12.70
2023-04-21T06:17:55.998Z,12.70
2023-04-21T06:20:22.695Z,12.80
2023-04-21T06:22:49.368Z,12.90
2023-04-21T06:25:16.050Z,12.90
2023-04-21T06:27:45.504Z,13.00
2023-04-21T06:30:12.293Z,13.10
2023-04-21T06:32:39.012Z,13.20
2023-04-21T06:35:06.081Z,13.30
2023-04-21T06:37:32.731Z,13.40
2023-04-21T06:39:59.292Z,13.40
2023-04-21T06:42:25.961Z,13.50
2023-04-21T06:44:52.592Z,13.60
2023-04-21T06:47:19.342Z,13.80
2023-04-21T06:49:46.471Z,13.90
2023-04-21T06:52:13.180Z,14.00
2023-04-21T06:54:39.791Z,14.20
2023-04-21T06:57:06.741Z,14.20
2023-04-21T06:59:34.650Z,14.30
2023-04-21T07:02:01.503Z,14.40
2023-04-21T07:04:30.280Z,14.50
2023-04-21T07:06:56.952Z,14.50
2023-04-21T07:09:23.626Z,14.50
2023-04-21T07:11:50.210Z,14.60
2023-04-21T07:14:16.830Z,14.70
2023-04-21T07:16:43.459Z,14.70
2023-04-21T07:19:10.183Z,14.90
2023-04-21T07:21:36.845Z,15.00
2023-04-21T07:24:03.959Z,15.00
2023-04-21T07:26:30.852Z,15.10
2023-04-21T07:28:58.551Z,15.20
2023-04-21T07:31:25.403Z,15.20
2023-04-21T07:33:52.103Z,15.30
2023-04-21T07:36:18.797Z,15.40
2023-04-21T07:38:45.403Z,15.40
2023-04-21T07:41:12.018Z,15.50
2023-04-21T07:43:38.929Z,15.60
2023-04-21T07:46:05.750Z,15.70
2023-04-21T07:48:32.421Z,15.70
2023-04-21T07:51:00.320Z,15.70
2023-04-21T07:53:27.268Z,15.70
2023-04-21T07:55:54.392Z,15.80
2023-04-21T07:58:21.471Z,15.80
2023-04-21T08:00:48.527Z,15.90
2023-04-21T08:03:15.325Z,15.90
2023-04-21T08:05:42.261Z,16.00
2023-04-21T08:08:08.941Z,16.20
2023-04-21T08:18:50.295Z,16.40
2023-04-21T08:21:16.889Z,16.60
2023-04-21T08:23:43.479Z,16.70
2023-04-21T08:26:10.764Z,16.90
2023-04-21T08:28:37.342Z,17.00
2023-04-21T08:31:04.874Z,17.10
2023-04-21T08:33:31.673Z,17.10
2023-04-21T08:36:05.587Z,17.20
2023-04-21T08:38:35.434Z,17.40
2023-04-21T08:41:03.442Z,17.50
2023-04-21T08:43:30.287Z,17.70
2023-04-21T08:45:57.226Z,17.90
2023-04-21T08:48:25.037Z,17.90
2023-04-21T08:50:51.996Z,18.00
2023-04-21T08:53:18.596Z,18.20
2023-04-21T08:55:47.810Z,18.40
2023-04-21T08:58:16.114Z,18.80
2023-04-21T09:00:42.852Z,19.00
2023-04-21T09:03:19.306Z,19.40
2023-04-21T09:06:09.777Z,19.40
2023-04-21T09:08:38.029Z,19.60
2023-04-21T09:11:04.662Z,19.70
2023-04-21T09:13:32.366Z,19.90
2023-04-21T09:15:59.469Z,20.20
2023-04-21T09:18:27.232Z,20.40
2023-04-21T09:21:14.135Z,20.60
2023-04-21T09:23:41.508Z,20.90
2023-04-21T09:26:08.661Z,21.30
2023-04-21T09:28:35.368Z,21.50
2023-04-21T09:31:02.024Z,21.70
2023-04-21T09:33:34.412Z,21.80
2023-04-21T09:36:06.087Z,22.30
2023-04-21T09:38:32.673Z,22.70
2023-04-21T09:40:59.600Z,23.20
2023-04-21T09:43:26.318Z,23.50
2023-04-21T09:45:53.941Z,24.00
2023-04-21T09:48:22.512Z,24.50
2023-04-21T09:53:21.976Z,25.00
2023-04-21T09:55:51.571Z,25.40
2023-04-21T09:58:20.169Z,25.80
2023-04-21T10:00:46.984Z,26.30
2023-04-21T10:03:14.526Z,26.70
2023-04-21T10:05:43.033Z,27.00
2023-04-21T10:08:11.730Z,27.40
2023-04-21T10:10:38.892Z,27.70
2023-04-21T10:13:05.684Z,27.90
2023-04-21T10:15:37.971Z,28.10
2023-04-21T10:18:21.774Z,28.30
2023-04-21T10:20:51.313Z,28.40
2023-04-21T10:23:26.155Z,28.60
2023-04-21T10:25:52.738Z,29.00
2023-04-21T10:28:19.438Z,29.00
2023-04-21T10:30:46.080Z,29.00
2023-04-21T10:33:12.743Z,29.60
2023-04-21T10:35:58.199Z,29.80
2023-04-21T10:38:40.686Z,29.40
2023-04-21T10:41:27.080Z,29.20
2023-04-21T10:43:53.777Z,29.50
2023-04-21T10:46:35.671Z,29.70
2023-04-21T10:49:31.522Z,30.00
2023-04-21T10:52:02.432Z,30.20
2023-04-21T10:54:37.762Z,30.40
2023-04-21T10:57:06.527Z,30.80
2023-04-21T10:59:34.372Z,30.40
2023-04-21T11:02:01.189Z,30.50
2023-04-21T11:04:28.352Z,32.00
2023-04-21T11:07:06.957Z,33.30
2023-04-21T11:09:33.688Z,34.20
2023-04-21T11:12:02.574Z,36.10
2023-04-21T11:14:29.662Z,36.20
2023-04-21T11:16:56.503Z,36.70
2023-04-21T11:19:25.074Z,37.20
2023-04-21T11:21:53.152Z,37.90
2023-04-21T11:24:20.815Z,37.70
2023-04-21T11:26:47.747Z,38.70
2023-04-21T11:29:14.514Z,39.10
2023-04-21T11:31:42.481Z,37.50
2023-04-21T11:34:09.301Z,35.50
2023-04-21T11:36:36.401Z,35.30
2023-04-21T11:39:13.858Z,35.20
2023-04-21T11:41:41.859Z,36.30
2023-04-21T11:44:09.083Z,37.30
2023-04-21T11:46:38.480Z,38.80
2023-04-21T11:49:06.866Z,39.60
2023-04-21T11:51:37.920Z,39.00
2023-04-21T11:54:05.378Z,35.80
2023-04-21T11:56:34.917Z,35.60
2023-04-21T11:59:06.348Z,35.80
2023-04-21T12:01:32.989Z,36.10
2023-04-21T12:03:59.754Z,36.90
2023-04-21T12:06:29.879Z,37.80
2023-04-21T12:08:59.795Z,38.60
2023-04-21T12:11:29.996Z,39.40
2023-04-21T12:13:59.696Z,39.40
2023-04-21T12:16:27.455Z,39.50
2023-04-21T12:18:54.947Z,38.10
2023-04-21T12:21:21.570Z,38.50
2023-04-21T12:23:48.241Z,38.70
2023-04-21T12:26:14.834Z,38.70
2023-04-21T12:28:41.438Z,38.80
2023-04-21T12:31:08.111Z,38.70
2023-04-21T12:33:34.840Z,38.70
2023-04-21T12:36:02.983Z,36.10
2023-04-21T12:38:29.538Z,36.10
2023-04-21T12:40:56.175Z,37.00
2023-04-21T12:43:22.796Z,38.30
2023-04-21T12:45:50.048Z,39.50
2023-04-21T12:48:16.758Z,40.30
2023-04-21T12:50:43.365Z,39.90
2023-04-21T12:53:10.104Z,38.50
2023-04-21T12:55:37.206Z,38.60
2023-04-21T12:58:03.849Z,39.00
2023-04-21T13:00:30.553Z,38.30
2023-04-21T13:02:57.307Z,37.70
2023-04-21T13:05:24.070Z,36.60
2023-04-21T13:07:50.675Z,35.00
2023-04-21T13:10:17.328Z,34.60
2023-04-21T13:12:44.249Z,34.80
2023-04-21T13:15:11.275Z,36.30
2023-04-21T13:17:37.982Z,36.60
2023-04-21T13:20:04.843Z,37.00
2023-04-21T13:22:31.471Z,34.90
2023-04-21T13:24:58.046Z,33.00
2023-04-21T13:27:24.624Z,31.60
2023-04-21T13:29:51.250Z,33.10
2023-04-21T13:32:17.908Z,34.30
2023-04-21T13:34:44.512Z,35.30
2023-04-21T13:37:15.278Z,36.60
2023-04-21T13:39:41.893Z,36.80
2023-04-21T13:42:08.752Z,34.80
2023-04-21T13:44:35.525Z,34.50
2023-04-21T13:47:02.290Z,35.70
2023-04-21T13:49:29.012Z,36.60
2023-04-21T13:51:58.523Z,36.60
2023-04-21T13:54:26.172Z,35.30
2023-04-21T13:56:54.264Z,32.90
2023-04-21T13:59:21.340Z,32.00
2023-04-21T14:01:47.991Z,32.00
2023-04-21T14:04:14.742Z,32.50
2023-04-21T14:06:41.531Z,33.70
2023-04-21T14:09:09.455Z,34.90
2023-04-21T14:11:36.157Z,35.60
2023-04-21T14:14:09.594Z,35.40
2023-04-21T14:16:37.223Z,34.20
2023-04-21T14:19:04.016Z,31.90
2023-04-21T14:21:31.745Z,32.50
2023-04-21T14:23:58.372Z,32.70
2023-04-21T14:26:24.959Z,32.80
2023-04-21T14:28:51.674Z,32.60
2023-04-21T14:31:21.153Z,33.10
2023-04-21T14:33:48.526Z,34.00
2023-04-21T14:36:15.213Z,33.90
2023-04-21T14:38:42.737Z,34.20
2023-04-21T14:41:09.649Z,34.00
2023-04-21T14:43:36.416Z,34.20
2023-04-21T14:46:03.063Z,34.40
2023-04-21T14:48:29.816Z,34.80
2023-04-21T14:50:59.266Z,35.40
2023-04-21T14:53:25.938Z,35.40
2023-04-21T14:55:54.283Z,35.30
2023-04-21T14:58:21.367Z,34.70
2023-04-21T15:00:48.184Z,34.20
2023-04-21T15:03:14.937Z,33.10
2023-04-21T15:05:41.709Z,31.70
2023-04-21T15:08:10.003Z,30.70
2023-04-21T15:10:36.690Z,30.10
2023-04-21T15:13:03.412Z,29.60
2023-04-21T15:15:30.085Z,28.80
2023-04-21T15:17:56.773Z,28.00
2023-04-21T15:20:36.486Z,27.20
2023-04-21T15:23:07.555Z,26.70
2023-04-21T15:25:34.180Z,27.00
2023-04-21T15:28:00.786Z,27.10
2023-04-21T15:30:27.354Z,27.60
2023-04-21T15:32:54.001Z,27.50
2023-04-21T15:35:20.666Z,27.90
2023-04-21T15:37:47.380Z,28.70
2023-04-21T15:40:14.019Z,28.90
2023-04-21T15:42:40.669Z,27.70
2023-04-21T15:45:08.313Z,26.90
2023-04-21T15:47:35.063Z,26.70
2023-04-21T15:50:01.704Z,26.50
2023-04-21T15:52:28.529Z,25.70
2023-04-21T15:54:55.100Z,25.00
2023-04-21T15:57:22.074Z,24.40
2023-04-21T15:59:49.021Z,24.30
2023-04-21T16:02:15.825Z,24.40
2023-04-21T16:04:43.027Z,24.20
2023-04-21T16:07:10.875Z,24.10
2023-04-21T16:09:37.498Z,23.60
2023-04-21T16:12:08.575Z,23.30
2023-04-21T16:14:50.803Z,22.90
2023-04-21T16:17:24.783Z,22.60
2023-04-21T16:19:52.917Z,22.40
2023-04-21T16:22:20.303Z,22.10
2023-04-21T16:24:47.109Z,22.00
2023-04-21T16:27:13.813Z,21.90
2023-04-21T16:29:40.392Z,21.80
2023-04-21T16:32:07.309Z,21.80
2023-04-21T16:34:34.292Z,21.60
2023-04-21T16:37:01.016Z,21.40
2023-04-21T16:39:27.719Z,21.40
2023-04-21T16:41:54.360Z,21.30
2023-04-21T16:44:21.021Z,21.30
2023-04-21T16:46:47.664Z,21.20
2023-04-21T16:49:14.458Z,21.00
2023-04-21T16:51:44.583Z,20.80
2023-04-21T16:54:11.644Z,20.60
2023-04-21T16:56:38.584Z,20.60
2023-04-21T16:59:06.652Z,20.50
2023-04-21T17:01:33.299Z,20.50
2023-04-21T17:04:00.208Z,20.30
2023-04-21T17:06:27.067Z,20.30
2023-04-21T17:08:59.538Z,20.40
2023-04-21T17:11:29.919Z,20.30
2023-04-21T17:13:56.580Z,20.30
2023-04-21T17:16:23.209Z,20.20
2023-04-21T17:18:49.915Z,20.30
2023-04-21T17:21:16.568Z,20.20
2023-04-21T17:23:43.191Z,20.10
2023-04-21T17:26:11.570Z,20.00
2023-04-21T17:28:39.590Z,19.90
2023-04-21T17:31:15.290Z,19.90
2023-04-21T17:33:43.443Z,19.70
2023-04-21T17:36:10.108Z,19.70
2023-04-21T17:38:36.815Z,19.70
2023-04-21T17:41:06.508Z,19.70
2023-04-21T17:43:33.318Z,19.60
2023-04-21T17:46:00.059Z,19.60
2023-04-21T17:48:27.256Z,19.50
2023-04-21T17:50:53.959Z,19.40
2023-04-21T17:53:20.687Z,19.30
2023-04-21T17:55:47.377Z,19.30
2023-04-21T17:58:13.991Z,19.20
2023-04-21T18:00:40.843Z,19.20
2023-04-21T18:03:07.679Z,19.10
2023-04-21T18:05:34.585Z,19.10
2023-04-21T18:08:01.296Z,19.00
2023-04-21T18:10:29.774Z,18.90
2023-04-21T18:12:56.971Z,18.80
2023-04-21T18:15:23.696Z,18.80
2023-04-21T18:17:50.396Z,18.70
2023-04-21T18:20:17.055Z,18.70
2023-04-21T18:22:44.087Z,18.70
2023-04-21T18:25:11.847Z,18.60
2023-04-21T18:27:39.302Z,18.60
2023-04-21T18:30:07.446Z,18.60
2023-04-21T18:32:34.700Z,18.50
2023-04-21T18:35:01.658Z,18.40
2023-04-21T18:37:28.231Z,18.40
2023-04-21T18:39:54.906Z,18.30
2023-04-21T18:42:21.570Z,18.30
2023-04-21T18:44:48.171Z,18.10
2023-04-21T18:47:15.520Z,18.00
2023-04-21T18:49:42.486Z,18.00
2023-04-21T18:52:09.312Z,18.00
2023-04-21T18:54:36.296Z,17.90
2023-04-21T18:57:03.503Z,17.90
2023-04-21T18:59:30.319Z,17.80
2023-04-21T19:01:57.079Z,17.70
2023-04-21T19:04:23.944Z,17.60
2023-04-21T19:06:50.643Z,17.60
2023-04-21T19:09:17.233Z,17.60
2023-04-21T19:11:43.905Z,17.50
2023-04-21T19:14:10.583Z,17.50
2023-04-21T19:16:37.384Z,17.50
2023-04-21T19:19:04.856Z,17.40
2023-04-21T19:21:31.444Z,17.40
2023-04-21T19:23:58.190Z,17.30
2023-04-21T19:26:25.195Z,17.30
2023-04-21T19:28:51.881Z,17.20
2023-04-21T19:31:23.238Z,17.10
2023-04-21T19:33:50.439Z,17.00
2023-04-21T19:36:17.145Z,16.90
2023-04-21T19:38:43.746Z,17.00
2023-04-21T19:41:10.481Z,16.90
2023-04-21T19:43:37.152Z,16.90
2023-04-21T19:46:04.053Z,16.90
2023-04-21T19:48:31.326Z,16.80
2023-04-21T19:50:58.058Z,16.80
2023-04-21T19:53:24.622Z,16.80
2023-04-21T19:55:52.744Z,16.70
2023-04-21T19:58:28.656Z,16.70
2023-04-21T20:01:05.436Z,16.70
2023-04-21T20:03:32.660Z,16.60
2023-04-21T20:05:59.386Z,16.60
2023-04-21T20:08:26.054Z,16.60
2023-04-21T20:10:52.676Z,16.50
2023-04-21T20:13:19.264Z,16.60
2023-04-21T20:15:45.933Z,16.60
2023-04-21T20:18:12.919Z,16.40
2023-04-21T20:20:40.521Z,16.30
2023-04-21T20:23:07.440Z,16.30
2023-04-21T20:25:34.088Z,16.40
2023-04-21T20:28:00.720Z,16.40
2023-04-21T20:30:27.374Z,16.40
2023-04-21T20:32:54.043Z,16.30
2023-04-21T20:35:20.738Z,16.30
2023-04-21T20:37:47.666Z,16.30
2023-04-21T20:40:14.756Z,16.40
2023-04-21T20:42:44.933Z,16.40
2023-04-21T20:45:12.803Z,16.30
2023-04-21T20:47:39.713Z,16.30
2023-04-21T20:50:07.495Z,16.20
2023-04-21T20:52:34.400Z,16.20
2023-04-21T20:55:01.048Z,16.10
2023-04-21T20:57:27.887Z,16.20
2023-04-21T20:59:54.592Z,16.10
2023-04-21T21:02:21.611Z,16.10
2023-04-21T21:04:48.353Z,16.10
2023-04-21T21:07:15.213Z,16.00
2023-04-21T21:09:41.950Z,16.00
2023-04-21T21:12:08.703Z,15.90
2023-04-21T21:14:35.458Z,15.90
2023-04-21T21:17:02.888Z,15.80
2023-04-21T21:19:29.667Z,15.90
2023-04-21T21:21:56.300Z,15.70
2023-04-21T21:24:22.992Z,15.70
2023-04-21T21:26:49.647Z,15.70
2023-04-21T21:29:16.256Z,15.70
2023-04-21T21:31:43.151Z,15.60
2023-04-21T21:34:09.722Z,15.60
2023-04-21T21:36:36.429Z,15.60
2023-04-21T21:39:03.062Z,15.50
2023-04-21T21:41:29.623Z,15.40
2023-04-21T21:43:56.192Z,15.40
2023-04-21T21:46:22.997Z,15.50
2023-04-21T21:48:49.867Z,15.40
2023-04-21T21:51:16.507Z,15.40
2023-04-21T21:53:43.109Z,15.30
2023-04-21T21:56:09.740Z,15.30
2023-04-21T21:58:36.783Z,15.20
2023-04-21T22:01:04.080Z,15.20
2023-04-21T22:03:30.873Z,15.20
2023-04-21T22:05:57.711Z,15.20
2023-04-21T22:08:24.384Z,15.20
2023-04-21T22:10:50.947Z,15.10
2023-04-21T22:13:17.511Z,15.10
2023-04-21T22:15:44.120Z,15.20
2023-04-21T22:18:11.289Z,15.20
2023-04-21T22:20:37.890Z,15.10
2023-04-21T22:23:04.506Z,15.10
2023-04-21T22:25:31.166Z,15.00
2023-04-21T22:27:57.784Z,15.00
2023-04-21T22:30:24.534Z,15.00
2023-04-21T22:32:51.213Z,14.90
2023-04-21T22:35:17.941Z,14.90
2023-04-21T22:37:44.568Z,14.90
2023-04-21T22:40:11.275Z,14.80
2023-04-21T22:42:38.119Z,14.80
2023-04-21T22:45:07.878Z,14.80
2023-04-21T22:47:34.872Z,14.80
2023-04-21T22:50:01.771Z,14.80
2023-04-21T22:52:28.364Z,14.70
2023-04-21T22:54:54.989Z,14.60
2023-04-21T22:57:21.686Z,14.70
2023-04-21T22:59:48.370Z,14.70
2023-04-21T23:02:15.062Z,14.60
2023-04-21T23:04:41.721Z,14.50
2023-04-21T23:07:08.341Z,14.50
2023-04-21T23:09:34.982Z,14.40
2023-04-21T23:12:01.755Z,14.50
2023-04-21T23:14:28.398Z,14.40
2023-04-21T23:16:55.127Z,14.40
2023-04-21T23:19:21.913Z,14.30
2023-04-21T23:21:48.491Z,14.30
2023-04-21T23:24:15.131Z,14.30
2023-04-21T23:26:41.703Z,14.20
2023-04-21T23:29:08.317Z,14.20
2023-04-21T23:31:34.981Z,14.20
2023-04-21T23:34:01.602Z,14.20
2023-04-21T23:36:28.198Z,14.10
2023-04-21T23:38:54.809Z,14.10
2023-04-21T23:41:21.502Z,14.10
2023-04-21T23:43:48.052Z,14.10
2023-04-21T23:46:15.107Z,14.10
2023-04-21T23:48:41.790Z,14.00
2023-04-21T23:51:08.499Z,14.00
2023-04-21T23:53:35.165Z,14.00
2023-04-21T23:56:01.849Z,14.00
2023-04-21T23:58:28.478Z,14.00
